Aérodrome :
LOGIN :

S'inscrire | Disclaimer

   EN    FR    IT 

 










Légende :    VFR   VFR Marginal   IFR   IFR Intensif   IFR Très Intensif
Visi : 
Plafond : 
>= 8 km
>= 3000ft
5 à 8 km
1000 à 3000 ft
1500m à 5 km
500 à 1000 ft
800 à 1500m
200 à 500 ft
< 800m
< 200 ft
Symboles :   Orages  Brouillard  Fortes neiges  Fortes précipitations  Vent > 20 kt
SIGMETs :   Divers  Orages  Givrage  Turbulence  Onde Orograph.  Cendres Volcan.







- Altitude de l'aérodrome : 239 ft
- Code IATA : VRN


LIPX - Villafranca Int. Verona

DERNIER METAR :
  • 181350Z 13005KT 060V190 9999 SCT015 13/05 Q1014

METARs EXPIRÉS :
  • 181320Z 12006KT 060V190 9999 SCT020 13/05 Q1014
  • 181250Z 13006KT 9999 SCT020 13/04 Q1014
  • 181220Z 11007KT 070V170 9999 FEW020 SCT060 13/05 Q1015
  • 181150Z 14009KT 9999 SCT020 SCT060 13/05 Q1014
  • 181120Z 13010KT 9999 SCT030 BKN060 12/07 Q1014

TAF TAF LIPX
Valide du 18 à 12h jusqu'au 18 à 21h UTC


181100Z 1812/1821 13007KT 9999 SCT050
Pas de NOTAMs connus pour ce terrain.



MET'MAP, la Météo Aéronautique d'un coup d'oeil ! - Copyright ORBIFLY Décembre 2007 - Disclaimer

ORBIFLY MET'MAP TEAM :

Programmation & Développement : Alexandra Zaïnal
Conception & Développement : Baudouin d'Aumeries
Co-Programmation & Développement : Marc-Olivier Méhu
Soutien technique & logistique : Manuel Goepfert

Contact : metmap@orbifly.com




SOURCES & CREDITS :

   NOAA